createdAt,value
2022-09-13T00:00:55.692Z,0.60
2022-09-13T00:03:25.084Z,0.70
2022-09-13T00:05:53.195Z,0.60
2022-09-13T00:08:21.370Z,0.80
2022-09-13T00:10:49.344Z,0.57
2022-09-13T00:13:18.302Z,0.50
2022-09-13T00:15:48.145Z,0.80
2022-09-13T00:18:17.342Z,0.77
2022-09-13T00:20:47.012Z,0.60
2022-09-13T00:23:15.251Z,0.70
2022-09-13T00:25:43.217Z,0.77
2022-09-13T00:28:11.214Z,0.60
2022-09-13T00:30:39.119Z,0.60
2022-09-13T00:33:07.144Z,0.40
2022-09-13T00:35:35.719Z,0.50
2022-09-13T00:38:05.011Z,0.60
2022-09-13T00:40:37.688Z,1.00
2022-09-13T00:43:05.687Z,0.68
2022-09-13T00:45:33.708Z,0.60
2022-09-13T00:48:04.153Z,0.73
2022-09-13T00:50:36.146Z,0.50
2022-09-13T00:53:08.484Z,0.40
2022-09-13T00:55:40.453Z,0.60
2022-09-13T00:58:12.716Z,0.50
2022-09-13T01:00:42.154Z,0.85
2022-09-13T01:03:13.289Z,0.50
2022-09-13T01:05:44.919Z,0.65
2022-09-13T01:08:22.989Z,0.60
2022-09-13T01:10:52.982Z,0.80
2022-09-13T01:13:23.733Z,0.50
2022-09-13T01:15:52.550Z,0.80
2022-09-13T01:18:21.602Z,0.57
2022-09-13T01:21:17.241Z,0.70
2022-09-13T01:24:12.595Z,0.40
2022-09-13T01:27:02.581Z,0.50
2022-09-13T01:29:51.589Z,0.57
2022-09-13T01:32:29.731Z,0.40
2022-09-13T01:35:08.887Z,0.52
2022-09-13T01:37:50.821Z,0.50
2022-09-13T01:40:32.599Z,0.50
2022-09-13T01:43:21.119Z,0.60
2022-09-13T01:45:58.029Z,0.50
2022-09-13T01:48:38.140Z,0.50
2022-09-13T01:51:11.774Z,0.68
2022-09-13T01:53:53.703Z,0.65
2022-09-13T01:56:27.930Z,0.50
2022-09-13T01:58:59.103Z,0.57
2022-09-13T02:01:31.765Z,0.68
2022-09-13T02:04:06.012Z,0.50
2022-09-13T02:06:39.908Z,0.70
2022-09-13T02:09:12.891Z,0.77
2022-09-13T02:11:45.799Z,0.77
2022-09-13T02:14:17.859Z,0.57
2022-09-13T02:16:52.475Z,0.60
2022-09-13T02:19:28.258Z,0.40
2022-09-13T02:21:59.723Z,0.60
2022-09-13T02:24:31.775Z,0.70
2022-09-13T02:27:04.119Z,0.50
2022-09-13T02:29:34.324Z,0.70
2022-09-13T02:32:07.700Z,0.50
2022-09-13T02:34:41.292Z,0.60
2022-09-13T02:37:12.044Z,1.02
2022-09-13T02:39:47.125Z,0.38
2022-09-13T02:42:19.716Z,0.80
2022-09-13T02:44:50.971Z,0.50
2022-09-13T02:47:32.375Z,0.50
2022-09-13T02:50:11.789Z,0.60
2022-09-13T02:52:50.329Z,0.60
2022-09-13T02:55:25.889Z,0.40
2022-09-13T02:58:03.783Z,0.55
2022-09-13T03:00:32.452Z,0.52
2022-09-13T03:03:05.536Z,0.40
2022-09-13T03:05:34.864Z,0.70
2022-09-13T03:08:04.035Z,0.60
2022-09-13T03:10:41.453Z,0.52
2022-09-13T03:13:34.843Z,0.73
2022-09-13T03:16:17.328Z,0.70
2022-09-13T03:18:57.028Z,0.60
2022-09-13T03:21:45.194Z,0.40
2022-09-13T03:24:23.948Z,0.75
2022-09-13T03:27:07.788Z,0.70
2022-09-13T03:29:46.709Z,0.70
2022-09-13T03:32:25.883Z,0.52
2022-09-13T03:35:00.419Z,0.68
2022-09-13T03:37:36.200Z,0.50
2022-09-13T03:40:10.723Z,0.45
2022-09-13T03:42:46.468Z,0.60
2022-09-13T03:45:18.083Z,0.77
2022-09-13T03:47:48.613Z,0.70
2022-09-13T03:50:20.690Z,0.70
2022-09-13T03:52:54.855Z,0.60
2022-09-13T03:55:23.712Z,0.65
2022-09-13T03:57:51.607Z,0.57
2022-09-13T04:00:20.341Z,0.43
2022-09-13T04:02:48.256Z,0.70
2022-09-13T04:05:16.262Z,0.47
2022-09-13T04:07:44.184Z,0.60
2022-09-13T04:10:14.158Z,0.80
2022-09-13T04:12:42.395Z,0.65
2022-09-13T04:15:11.295Z,0.93
2022-09-13T04:17:39.274Z,0.90
2022-09-13T04:20:07.753Z,1.10
2022-09-13T04:22:35.654Z,0.50
2022-09-13T04:25:03.959Z,0.50
2022-09-13T04:27:33.394Z,0.60
2022-09-13T04:30:01.301Z,0.50
2022-09-13T04:32:29.745Z,0.52
2022-09-13T04:34:57.673Z,0.65
2022-09-13T04:37:25.601Z,0.60
2022-09-13T04:39:53.636Z,0.70
2022-09-13T04:42:21.629Z,0.80
2022-09-13T04:44:50.950Z,0.80
2022-09-13T04:47:19.131Z,0.73
2022-09-13T04:49:48.582Z,1.08
2022-09-13T04:52:16.503Z,0.90
2022-09-13T04:54:44.555Z,0.55
2022-09-13T04:57:12.730Z,0.60
2022-09-13T04:59:40.681Z,0.60
2022-09-13T05:02:10.305Z,0.80
2022-09-13T05:04:38.460Z,0.50
2022-09-13T05:07:06.347Z,0.40
2022-09-13T05:09:34.269Z,0.60
2022-09-13T05:12:02.188Z,0.55
2022-09-13T05:14:30.188Z,0.82
2022-09-13T05:16:58.108Z,0.50
2022-09-13T05:19:27.468Z,0.47
2022-09-13T05:21:55.395Z,0.75
2022-09-13T05:24:23.553Z,0.43
2022-09-13T05:26:51.447Z,0.60
2022-09-13T05:29:19.376Z,0.65
2022-09-13T05:31:47.348Z,0.73
2022-09-13T05:34:17.664Z,0.60
2022-09-13T05:36:51.668Z,0.40
2022-09-13T05:39:43.753Z,0.60
2022-09-13T05:42:10.948Z,0.50
2022-09-13T05:44:38.900Z,0.82
2022-09-13T05:47:07.146Z,0.75
2022-09-13T05:49:41.763Z,0.70
2022-09-13T05:52:19.347Z,0.93
2022-09-13T05:54:47.222Z,1.20
2022-09-13T05:57:15.118Z,0.98
2022-09-13T05:59:43.676Z,1.00
2022-09-13T06:02:11.904Z,0.98
2022-09-13T06:04:39.847Z,1.00
2022-09-13T06:07:07.775Z,0.80
2022-09-13T06:09:37.333Z,0.73
2022-09-13T06:12:05.685Z,0.90
2022-09-13T06:14:33.569Z,0.95
2022-09-13T06:17:01.512Z,0.95
2022-09-13T06:19:29.408Z,1.20
2022-09-13T06:21:57.323Z,1.00
2022-09-13T06:24:25.264Z,1.27
2022-09-13T06:26:54.889Z,1.10
2022-09-13T06:29:22.823Z,1.17
2022-09-13T06:31:50.785Z,2.50
2022-09-13T06:34:18.694Z,3.72
2022-09-13T06:36:46.695Z,2.28
2022-09-13T06:39:14.681Z,1.65
2022-09-13T06:41:42.583Z,2.22
2022-09-13T06:44:12.188Z,1.25
2022-09-13T06:46:40.304Z,1.35
2022-09-13T06:49:09.800Z,1.20
2022-09-13T06:51:38.200Z,1.15
2022-09-13T06:54:06.349Z,1.00
2022-09-13T06:56:35.840Z,0.95
2022-09-13T06:59:05.800Z,1.00
2022-09-13T07:01:37.824Z,1.10
2022-09-13T07:04:07.808Z,1.00
2022-09-13T07:06:38.296Z,1.27
2022-09-13T07:09:08.215Z,1.05
2022-09-13T07:11:38.616Z,1.02
2022-09-13T07:14:07.814Z,0.75
2022-09-13T07:16:38.997Z,1.00
2022-09-13T07:19:10.575Z,1.00
2022-09-13T07:21:38.635Z,1.00
2022-09-13T07:24:07.380Z,0.68
2022-09-13T07:26:35.611Z,0.65
2022-09-13T07:29:06.283Z,1.00
2022-09-13T07:31:35.910Z,0.90
2022-09-13T07:34:08.047Z,1.10
2022-09-13T07:36:37.747Z,1.55
2022-09-13T07:39:07.637Z,1.70
2022-09-13T07:41:38.583Z,1.67
2022-09-13T07:44:07.872Z,1.70
2022-09-13T07:46:43.519Z,1.50
2022-09-13T07:49:14.455Z,1.63
2022-09-13T07:51:44.264Z,1.50
2022-09-13T07:54:14.302Z,1.33
2022-09-13T07:56:42.930Z,0.95
2022-09-13T07:59:14.022Z,0.90
2022-09-13T08:01:43.417Z,1.10
2022-09-13T08:04:14.521Z,1.20
2022-09-13T08:06:43.474Z,1.33
2022-09-13T08:09:11.932Z,1.10
2022-09-13T08:11:41.206Z,0.98
2022-09-13T08:14:11.680Z,1.23
2022-09-13T08:16:40.477Z,1.10
2022-09-13T08:19:09.662Z,1.25
2022-09-13T08:21:41.576Z,1.23
2022-09-13T08:24:15.352Z,1.00
2022-09-13T08:26:43.316Z,0.98
2022-09-13T08:29:13.778Z,1.00
2022-09-13T08:31:42.491Z,0.93
2022-09-13T08:34:12.993Z,1.10
2022-09-13T08:36:42.398Z,1.13
2022-09-13T08:39:12.029Z,1.00
2022-09-13T08:42:02.665Z,1.10
2022-09-13T08:44:34.404Z,0.98
2022-09-13T08:47:19.792Z,1.13
2022-09-13T08:49:50.755Z,1.05
2022-09-13T08:52:30.629Z,1.10
2022-09-13T08:55:00.000Z,1.08
2022-09-13T08:57:37.249Z,1.25
2022-09-13T09:00:20.527Z,1.00
2022-09-13T09:02:59.323Z,0.98
2022-09-13T09:05:30.248Z,0.82
2022-09-13T09:08:02.794Z,0.88
2022-09-13T09:10:33.968Z,0.90
2022-09-13T09:13:07.552Z,0.90
2022-09-13T09:15:38.511Z,0.90
2022-09-13T09:18:12.196Z,0.80
2022-09-13T09:20:43.399Z,0.80
2022-09-13T09:23:21.368Z,0.70
2022-09-13T09:25:53.092Z,0.73
2022-09-13T09:28:23.094Z,1.30
2022-09-13T09:31:00.040Z,1.40
2022-09-13T09:33:47.888Z,1.17
2022-09-13T09:36:25.405Z,1.35
2022-09-13T09:38:54.763Z,1.42
2022-09-13T09:41:29.025Z,1.45
2022-09-13T09:44:02.788Z,1.40
2022-09-13T09:46:34.690Z,1.23
2022-09-13T09:49:28.836Z,1.20
2022-09-13T09:51:58.446Z,1.20
2022-09-13T09:54:31.494Z,1.17
2022-09-13T09:57:00.014Z,1.10
2022-09-13T09:59:31.256Z,1.10
2022-09-13T10:02:00.274Z,1.30
2022-09-13T10:04:29.678Z,1.23
2022-09-13T10:07:20.388Z,1.00
2022-09-13T10:10:00.035Z,1.00
2022-09-13T10:12:29.952Z,1.50
2022-09-13T10:15:06.918Z,1.05
2022-09-13T10:17:34.863Z,0.93
2022-09-13T10:20:05.535Z,1.00
2022-09-13T10:22:34.606Z,1.20
2022-09-13T10:25:22.598Z,1.20
2022-09-13T10:27:54.294Z,1.58
2022-09-13T10:30:34.182Z,1.50
2022-09-13T10:33:03.958Z,1.40
2022-09-13T10:35:32.684Z,1.60
2022-09-13T10:38:00.706Z,1.30
2022-09-13T10:40:33.686Z,1.60
2022-09-13T10:43:04.953Z,1.45
2022-09-13T10:45:33.250Z,1.60
2022-09-13T10:48:07.059Z,1.17
2022-09-13T10:50:36.291Z,1.50
2022-09-13T10:53:05.627Z,1.80
2022-09-13T10:55:36.843Z,1.50
2022-09-13T10:58:24.564Z,1.58
2022-09-13T11:01:29.160Z,1.50
2022-09-13T11:04:32.549Z,1.40
2022-09-13T11:07:15.660Z,1.70
2022-09-13T11:09:53.403Z,1.33
2022-09-13T11:12:30.270Z,1.83
2022-09-13T11:15:06.381Z,1.30
2022-09-13T11:17:59.195Z,1.42
2022-09-13T11:20:39.515Z,1.90
2022-09-13T11:23:29.756Z,1.83
2022-09-13T11:26:08.520Z,1.38
2022-09-13T11:28:50.305Z,1.50
2022-09-13T11:31:33.321Z,1.13
2022-09-13T11:34:18.115Z,1.40
2022-09-13T11:37:10.795Z,1.73
2022-09-13T11:39:40.388Z,1.17
2022-09-13T11:42:23.263Z,1.00
2022-09-13T11:45:24.105Z,0.95
2022-09-13T11:48:08.771Z,1.08
2022-09-13T11:50:45.737Z,1.20
2022-09-13T11:53:38.469Z,1.00
2022-09-13T11:56:10.703Z,1.70
2022-09-13T11:58:45.702Z,1.00
2022-09-13T12:01:21.706Z,1.17
2022-09-13T12:03:57.810Z,1.10
2022-09-13T12:06:30.191Z,1.20
2022-09-13T12:09:03.949Z,0.93
2022-09-13T12:11:35.899Z,1.23
2022-09-13T12:14:07.749Z,0.90
2022-09-13T12:16:42.086Z,1.42
2022-09-13T12:19:17.874Z,0.95
2022-09-13T12:21:48.290Z,1.30
2022-09-13T12:24:19.723Z,1.08
2022-09-13T12:26:53.692Z,1.00
2022-09-13T12:29:29.559Z,0.90
2022-09-13T12:32:03.403Z,1.05
2022-09-13T12:34:40.389Z,1.20
2022-09-13T12:37:20.063Z,1.42
2022-09-13T12:40:15.612Z,1.33
2022-09-13T12:43:18.386Z,1.10
2022-09-13T12:46:16.675Z,1.25
2022-09-13T12:48:58.924Z,0.77
2022-09-13T12:51:43.371Z,0.90
2022-09-13T12:54:37.466Z,1.00
2022-09-13T12:57:19.471Z,1.05
2022-09-13T13:00:19.030Z,1.10
2022-09-13T13:02:55.085Z,1.00
2022-09-13T13:05:30.776Z,1.15
2022-09-13T13:08:02.470Z,1.10
2022-09-13T13:10:33.757Z,1.13
2022-09-13T13:13:13.377Z,1.20
2022-09-13T13:16:05.704Z,1.50
2022-09-13T13:18:46.145Z,1.20
2022-09-13T13:21:31.985Z,1.17
2022-09-13T13:24:37.908Z,1.15
2022-09-13T13:27:34.156Z,1.58
2022-09-13T13:30:40.276Z,1.30
2022-09-13T13:33:16.224Z,1.25
2022-09-13T13:35:44.755Z,1.10
2022-09-13T13:38:32.656Z,1.48
2022-09-13T13:41:12.767Z,1.33
2022-09-13T13:43:40.948Z,1.30
2022-09-13T13:46:29.128Z,1.60
2022-09-13T13:48:57.535Z,1.13
2022-09-13T13:51:27.844Z,1.33
2022-09-13T13:54:31.341Z,1.30
2022-09-13T13:56:59.333Z,1.20
2022-09-13T13:59:32.717Z,1.48
2022-09-13T14:02:01.990Z,1.20
2022-09-13T14:04:54.298Z,1.48
2022-09-13T14:07:37.931Z,1.30
2022-09-13T14:10:13.275Z,1.65
2022-09-13T14:12:57.715Z,1.10
2022-09-13T14:15:47.573Z,1.10
2022-09-13T14:18:36.228Z,1.05
2022-09-13T14:21:06.476Z,1.25
2022-09-13T14:23:35.320Z,1.60
2022-09-13T14:26:07.051Z,1.27
2022-09-13T14:28:35.802Z,1.20
2022-09-13T14:31:04.073Z,1.10
2022-09-13T14:33:35.159Z,1.60
2022-09-13T14:36:07.096Z,1.50
2022-09-13T14:38:36.626Z,1.45
2022-09-13T14:41:15.019Z,1.63
2022-09-13T14:43:43.615Z,1.65
2022-09-13T14:46:17.554Z,1.35
2022-09-13T14:48:51.663Z,1.48
2022-09-13T14:51:25.398Z,1.35
2022-09-13T14:53:58.204Z,1.25
2022-09-13T14:56:37.083Z,1.45
2022-09-13T14:59:07.948Z,1.60
2022-09-13T15:01:37.069Z,1.38
2022-09-13T15:04:07.607Z,1.70
2022-09-13T15:06:39.157Z,1.63
2022-09-13T15:09:27.505Z,2.00
2022-09-13T15:12:23.141Z,1.60
2022-09-13T15:14:51.063Z,1.55
2022-09-13T15:17:18.982Z,1.63
2022-09-13T15:19:51.152Z,1.63
2022-09-13T15:22:26.430Z,1.42
2022-09-13T15:24:56.598Z,1.50
2022-09-13T15:27:29.294Z,1.65
2022-09-13T15:30:00.419Z,1.30
2022-09-13T15:32:34.897Z,1.70
2022-09-13T15:35:03.797Z,1.60
2022-09-13T15:37:37.502Z,2.00
2022-09-13T15:40:22.216Z,1.92
2022-09-13T15:42:52.838Z,2.00
2022-09-13T15:45:22.964Z,1.67
2022-09-13T15:47:52.991Z,1.92
2022-09-13T15:50:23.984Z,1.95
2022-09-13T15:52:51.895Z,1.40
2022-09-13T15:55:19.865Z,1.80
2022-09-13T15:57:48.562Z,1.48
2022-09-13T16:00:21.241Z,1.77
2022-09-13T16:02:49.707Z,1.85
2022-09-13T16:05:17.984Z,1.40
2022-09-13T16:07:46.648Z,1.52
2022-09-13T16:10:17.369Z,1.75
2022-09-13T16:12:46.900Z,1.92
2022-09-13T16:15:15.614Z,1.60
2022-09-13T16:17:45.049Z,1.58
2022-09-13T16:20:15.296Z,1.98
2022-09-13T16:22:43.587Z,1.60
2022-09-13T18:14:14.751Z,1.83
2022-09-13T18:16:43.167Z,1.70
2022-09-13T18:19:12.172Z,1.70
2022-09-13T18:21:40.258Z,2.95
2022-09-13T18:24:08.270Z,2.60
2022-09-13T18:26:36.982Z,2.08
2022-09-13T18:29:07.002Z,2.17
2022-09-13T18:34:35.537Z,1.55
2022-09-13T18:37:03.537Z,1.70
2022-09-13T18:39:31.682Z,1.52
2022-09-13T18:42:01.096Z,1.63
2022-09-13T18:44:30.386Z,1.42
2022-09-13T18:46:58.387Z,1.60
2022-09-13T18:49:26.310Z,1.50
2022-09-13T18:51:55.624Z,1.38
2022-09-13T18:54:23.575Z,1.40
2022-09-13T18:56:51.698Z,1.75
2022-09-13T18:59:19.712Z,1.80
2022-09-13T19:01:48.856Z,1.85
2022-09-13T19:04:18.502Z,1.50
2022-09-13T19:06:48.470Z,1.63
2022-09-13T19:09:20.650Z,2.08
2022-09-13T19:11:50.785Z,1.80
2022-09-13T19:14:21.647Z,1.60
2022-09-13T19:16:50.547Z,1.55
2022-09-13T19:19:18.520Z,2.55
2022-09-13T19:21:46.609Z,1.50
2022-09-13T19:24:18.226Z,1.80
2022-09-13T19:26:50.725Z,1.60
2022-09-13T19:29:22.877Z,1.83
2022-09-13T19:31:53.097Z,1.77
2022-09-13T19:34:23.506Z,2.13
2022-09-13T19:36:57.565Z,1.95
2022-09-13T19:39:29.627Z,1.70
2022-09-13T19:42:00.836Z,1.83
2022-09-13T19:44:28.914Z,1.73
2022-09-13T19:47:36.168Z,2.10
2022-09-13T19:49:44.791Z,1.85
2022-09-13T19:52:12.729Z,2.22
2022-09-13T19:54:40.674Z,2.47
2022-09-13T19:57:10.104Z,2.35
2022-09-13T19:59:38.058Z,2.33
2022-09-13T20:02:06.747Z,2.42
2022-09-13T20:04:34.866Z,2.03
2022-09-13T20:07:02.840Z,2.30
2022-09-13T20:09:31.853Z,2.50
2022-09-13T20:12:00.734Z,2.70
2022-09-13T20:14:30.111Z,2.17
2022-09-13T20:16:58.685Z,2.40
2022-09-13T20:19:46.342Z,2.25
2022-09-13T20:22:14.749Z,1.85
2022-09-13T20:24:43.287Z,2.35
2022-09-13T20:27:11.525Z,2.35
2022-09-13T20:29:41.544Z,2.88
2022-09-13T20:32:09.544Z,2.40
2022-09-13T20:34:37.836Z,2.20
2022-09-13T20:37:05.906Z,2.35
2022-09-13T20:39:33.832Z,2.10
2022-09-13T20:42:01.950Z,1.92
2022-09-13T20:44:29.875Z,2.50
2022-09-13T20:46:59.218Z,2.67
2022-09-13T20:49:28.468Z,2.63
2022-09-13T20:51:56.623Z,2.53
2022-09-13T20:54:24.506Z,2.88
2022-09-13T20:56:52.457Z,2.22
2022-09-13T20:59:21.243Z,2.50
2022-09-13T21:01:49.789Z,2.38
2022-09-13T21:04:19.206Z,2.30
2022-09-13T21:07:01.050Z,2.00
2022-09-13T21:09:29.021Z,1.92
2022-09-13T21:11:56.934Z,2.40
2022-09-13T21:14:24.835Z,2.50
2022-09-13T21:16:52.901Z,2.65
2022-09-13T21:19:22.423Z,2.30
2022-09-13T21:21:50.488Z,1.95
2022-09-13T21:24:18.635Z,1.98
2022-09-13T21:26:46.557Z,2.38
2022-09-13T21:29:14.533Z,2.47
2022-09-13T21:31:42.479Z,2.13
2022-09-13T21:34:15.204Z,2.60
2022-09-13T21:36:45.917Z,2.28
2022-09-13T21:39:14.304Z,2.42
2022-09-13T21:41:42.405Z,2.15
2022-09-13T21:44:10.498Z,2.88
2022-09-13T21:46:40.008Z,2.58
2022-09-13T21:49:10.714Z,2.50
2022-09-13T21:51:40.835Z,2.63
2022-09-13T21:54:12.210Z,2.70
2022-09-13T21:56:42.226Z,2.20
2022-09-13T21:59:14.470Z,1.95
2022-09-13T22:01:44.394Z,2.40
2022-09-13T22:04:16.673Z,2.20
2022-09-13T22:06:45.052Z,2.30
2022-09-13T22:09:15.521Z,1.92
2022-09-13T22:11:45.303Z,2.05
2022-09-13T22:14:14.619Z,2.65
2022-09-13T22:16:44.148Z,2.25
2022-09-13T22:19:14.429Z,2.42
2022-09-13T22:21:44.186Z,2.72
2022-09-13T22:24:17.533Z,2.53
2022-09-13T22:26:47.375Z,2.35
2022-09-13T22:29:16.162Z,1.88
2022-09-13T22:31:45.845Z,2.08
2022-09-13T22:34:15.879Z,2.15
2022-09-13T22:36:44.441Z,2.15
2022-09-13T22:39:13.936Z,2.42
2022-09-13T22:41:43.561Z,1.80
2022-09-13T22:44:12.001Z,2.20
2022-09-13T22:46:42.516Z,2.00
2022-09-13T22:49:13.495Z,2.40
2022-09-13T22:51:41.807Z,2.10
2022-09-13T22:54:09.745Z,2.33
2022-09-13T22:56:38.659Z,2.30
2022-09-13T22:59:09.803Z,2.28
2022-09-13T23:01:38.338Z,2.80
2022-09-13T23:04:06.896Z,3.55
2022-09-13T23:06:35.771Z,3.70
2022-09-13T23:09:07.108Z,4.97
2022-09-13T23:11:36.900Z,5.20
2022-09-13T23:14:08.349Z,4.43
2022-09-13T23:16:38.744Z,3.75
2022-09-13T23:19:06.855Z,3.75
2022-09-13T23:21:37.620Z,3.40
2022-09-13T23:24:07.492Z,3.47
2022-09-13T23:26:35.803Z,3.25
2022-09-13T23:29:05.696Z,3.67
2022-09-13T23:31:38.908Z,3.45
2022-09-13T23:34:08.479Z,3.25
2022-09-13T23:36:38.889Z,3.78
2022-09-13T23:39:09.620Z,2.97
2022-09-13T23:41:38.284Z,3.58
2022-09-13T23:44:06.283Z,3.25
2022-09-13T23:46:35.607Z,2.80
2022-09-13T23:49:03.574Z,2.90
2022-09-13T23:51:31.634Z,3.10
2022-09-13T23:54:01.062Z,3.05
2022-09-13T23:56:31.065Z,2.90
2022-09-13T23:59:01.134Z,2.75
